sensor_id;sensor_type;location;lat;lon;timestamp;P1;durP1;ratioP1;P2;durP2;ratioP2
787;SDS011;16074;42.708;23.312;2023-01-10T00:01:54;28.17;;;16.92;;
787;SDS011;16074;42.708;23.312;2023-01-10T00:04:23;24.60;;;15.88;;
787;SDS011;16074;42.708;23.312;2023-01-10T00:06:55;23.35;;;16.35;;
787;SDS011;16074;42.708;23.312;2023-01-10T00:09:23;24.35;;;16.55;;
787;SDS011;16074;42.708;23.312;2023-01-10T00:11:52;28.85;;;15.73;;
787;SDS011;16074;42.708;23.312;2023-01-10T00:14:37;29.38;;;18.88;;
787;SDS011;16074;42.708;23.312;2023-01-10T00:17:06;23.90;;;15.70;;
787;SDS011;16074;42.708;23.312;2023-01-10T00:19:34;25.75;;;15.93;;
787;SDS011;16074;42.708;23.312;2023-01-10T00:22:03;26.60;;;18.45;;
787;SDS011;16074;42.708;23.312;2023-01-10T00:24:48;20.60;;;15.45;;
787;SDS011;16074;42.708;23.312;2023-01-10T00:27:16;23.58;;;14.63;;
787;SDS011;16074;42.708;23.312;2023-01-10T00:29:48;24.65;;;16.40;;
787;SDS011;16074;42.708;23.312;2023-01-10T00:32:18;22.20;;;15.05;;
787;SDS011;16074;42.708;23.312;2023-01-10T00:34:47;20.13;;;15.07;;
787;SDS011;16074;42.708;23.312;2023-01-10T00:37:16;17.88;;;12.77;;
787;SDS011;16074;42.708;23.312;2023-01-10T00:39:44;25.88;;;15.35;;
787;SDS011;16074;42.708;23.312;2023-01-10T00:42:13;24.60;;;15.68;;
787;SDS011;16074;42.708;23.312;2023-01-10T00:44:59;23.83;;;14.88;;
787;SDS011;16074;42.708;23.312;2023-01-10T00:47:27;25.63;;;14.98;;
787;SDS011;16074;42.708;23.312;2023-01-10T00:49:55;28.42;;;16.45;;
787;SDS011;16074;42.708;23.312;2023-01-10T00:52:25;26.45;;;16.30;;
787;SDS011;16074;42.708;23.312;2023-01-10T00:54:53;22.48;;;14.75;;
787;SDS011;16074;42.708;23.312;2023-01-10T00:57:21;22.63;;;14.98;;
787;SDS011;16074;42.708;23.312;2023-01-10T00:59:50;21.20;;;15.50;;
787;SDS011;16074;42.708;23.312;2023-01-10T01:02:18;21.92;;;14.55;;
787;SDS011;16074;42.708;23.312;2023-01-10T01:04:46;20.73;;;14.80;;
787;SDS011;16074;42.708;23.312;2023-01-10T01:07:15;22.38;;;15.00;;
787;SDS011;16074;42.708;23.312;2023-01-10T01:09:44;21.23;;;14.52;;
787;SDS011;16074;42.708;23.312;2023-01-10T01:12:30;24.27;;;14.95;;
787;SDS011;16074;42.708;23.312;2023-01-10T01:14:58;22.98;;;14.95;;
787;SDS011;16074;42.708;23.312;2023-01-10T01:17:27;21.60;;;15.95;;
787;SDS011;16074;42.708;23.312;2023-01-10T01:19:55;23.80;;;15.98;;
787;SDS011;16074;42.708;23.312;2023-01-10T01:22:24;23.52;;;15.18;;
787;SDS011;16074;42.708;23.312;2023-01-10T01:24:53;20.27;;;13.73;;
787;SDS011;16074;42.708;23.312;2023-01-10T01:27:22;21.77;;;14.95;;
787;SDS011;16074;42.708;23.312;2023-01-10T01:29:50;24.60;;;16.85;;
787;SDS011;16074;42.708;23.312;2023-01-10T01:32:18;20.77;;;13.30;;
787;SDS011;16074;42.708;23.312;2023-01-10T01:34:47;22.73;;;14.95;;
787;SDS011;16074;42.708;23.312;2023-01-10T01:37:16;23.45;;;15.48;;
787;SDS011;16074;42.708;23.312;2023-01-10T01:39:45;19.42;;;13.35;;
787;SDS011;16074;42.708;23.312;2023-01-10T01:42:20;19.52;;;14.15;;
787;SDS011;16074;42.708;23.312;2023-01-10T01:48:07;22.27;;;14.25;;
787;SDS011;16074;42.708;23.312;2023-01-10T01:50:43;19.75;;;14.00;;
787;SDS011;16074;42.708;23.312;2023-01-10T01:53:16;20.90;;;14.45;;
787;SDS011;16074;42.708;23.312;2023-01-10T01:55:49;21.90;;;14.40;;
787;SDS011;16074;42.708;23.312;2023-01-10T01:58:23;21.80;;;13.77;;
787;SDS011;16074;42.708;23.312;2023-01-10T02:00:56;17.08;;;14.07;;
787;SDS011;16074;42.708;23.312;2023-01-10T02:03:25;20.48;;;14.60;;
787;SDS011;16074;42.708;23.312;2023-01-10T02:05:54;20.25;;;14.57;;
787;SDS011;16074;42.708;23.312;2023-01-10T02:08:22;20.50;;;13.25;;
787;SDS011;16074;42.708;23.312;2023-01-10T02:10:52;23.48;;;16.63;;
787;SDS011;16074;42.708;23.312;2023-01-10T02:13:26;20.95;;;14.45;;
787;SDS011;16074;42.708;23.312;2023-01-10T02:15:55;22.38;;;15.25;;
787;SDS011;16074;42.708;23.312;2023-01-10T02:18:23;22.92;;;15.18;;
787;SDS011;16074;42.708;23.312;2023-01-10T02:24:13;24.23;;;15.30;;
787;SDS011;16074;42.708;23.312;2023-01-10T02:27:09;20.90;;;13.70;;
787;SDS011;16074;42.708;23.312;2023-01-10T02:30:00;19.52;;;13.65;;
787;SDS011;16074;42.708;23.312;2023-01-10T02:32:52;19.10;;;14.15;;
787;SDS011;16074;42.708;23.312;2023-01-10T02:38:31;22.83;;;14.15;;
787;SDS011;16074;42.708;23.312;2023-01-10T02:41:08;21.00;;;13.68;;
787;SDS011;16074;42.708;23.312;2023-01-10T02:43:44;16.42;;;12.38;;
787;SDS011;16074;42.708;23.312;2023-01-10T02:46:18;17.08;;;13.60;;
787;SDS011;16074;42.708;23.312;2023-01-10T02:48:52;19.25;;;14.77;;
787;SDS011;16074;42.708;23.312;2023-01-10T02:51:22;22.00;;;14.48;;
787;SDS011;16074;42.708;23.312;2023-01-10T02:53:54;22.20;;;13.73;;
787;SDS011;16074;42.708;23.312;2023-01-10T02:59:58;20.33;;;13.55;;
787;SDS011;16074;42.708;23.312;2023-01-10T03:02:51;19.73;;;13.60;;
787;SDS011;16074;42.708;23.312;2023-01-10T03:05:34;22.42;;;13.88;;
787;SDS011;16074;42.708;23.312;2023-01-10T03:08:17;17.02;;;12.80;;
787;SDS011;16074;42.708;23.312;2023-01-10T03:10:55;15.20;;;13.45;;
787;SDS011;16074;42.708;23.312;2023-01-10T03:13:26;18.92;;;14.70;;
787;SDS011;16074;42.708;23.312;2023-01-10T03:15:59;23.45;;;13.77;;
787;SDS011;16074;42.708;23.312;2023-01-10T03:18:30;19.45;;;14.55;;
787;SDS011;16074;42.708;23.312;2023-01-10T03:21:03;15.13;;;13.18;;
787;SDS011;16074;42.708;23.312;2023-01-10T03:23:34;19.38;;;14.68;;
787;SDS011;16074;42.708;23.312;2023-01-10T03:26:04;19.92;;;14.15;;
787;SDS011;16074;42.708;23.312;2023-01-10T03:28:34;17.17;;;13.88;;
787;SDS011;16074;42.708;23.312;2023-01-10T03:31:09;19.00;;;14.52;;
787;SDS011;16074;42.708;23.312;2023-01-10T03:33:41;17.40;;;12.80;;
787;SDS011;16074;42.708;23.312;2023-01-10T03:36:12;22.52;;;15.32;;
787;SDS011;16074;42.708;23.312;2023-01-10T03:38:49;18.05;;;12.95;;
787;SDS011;16074;42.708;23.312;2023-01-10T03:41:23;21.42;;;15.40;;
787;SDS011;16074;42.708;23.312;2023-01-10T03:44:03;21.13;;;13.98;;
787;SDS011;16074;42.708;23.312;2023-01-10T03:47:02;20.35;;;14.25;;
787;SDS011;16074;42.708;23.312;2023-01-10T03:49:35;21.45;;;14.88;;
787;SDS011;16074;42.708;23.312;2023-01-10T03:52:08;16.98;;;13.27;;
787;SDS011;16074;42.708;23.312;2023-01-10T03:54:41;16.40;;;12.88;;
787;SDS011;16074;42.708;23.312;2023-01-10T03:57:14;17.70;;;12.25;;
787;SDS011;16074;42.708;23.312;2023-01-10T03:59:44;18.30;;;12.57;;
787;SDS011;16074;42.708;23.312;2023-01-10T04:02:14;19.52;;;13.70;;
787;SDS011;16074;42.708;23.312;2023-01-10T04:04:43;19.10;;;14.73;;
787;SDS011;16074;42.708;23.312;2023-01-10T04:07:12;21.88;;;14.02;;
787;SDS011;16074;42.708;23.312;2023-01-10T04:09:41;19.50;;;13.65;;
787;SDS011;16074;42.708;23.312;2023-01-10T04:12:09;15.95;;;13.63;;
787;SDS011;16074;42.708;23.312;2023-01-10T04:14:37;15.50;;;12.43;;
787;SDS011;16074;42.708;23.312;2023-01-10T04:17:05;20.60;;;12.68;;
787;SDS011;16074;42.708;23.312;2023-01-10T04:19:34;19.33;;;14.57;;
787;SDS011;16074;42.708;23.312;2023-01-10T04:22:02;23.45;;;14.63;;
787;SDS011;16074;42.708;23.312;2023-01-10T04:24:32;18.70;;;14.73;;
787;SDS011;16074;42.708;23.312;2023-01-10T04:27:01;16.15;;;12.88;;
787;SDS011;16074;42.708;23.312;2023-01-10T04:29:29;18.58;;;12.85;;
787;SDS011;16074;42.708;23.312;2023-01-10T04:31:57;18.42;;;12.75;;
787;SDS011;16074;42.708;23.312;2023-01-10T04:34:26;18.15;;;13.40;;
787;SDS011;16074;42.708;23.312;2023-01-10T04:36:54;14.82;;;12.65;;
787;SDS011;16074;42.708;23.312;2023-01-10T04:39:23;17.05;;;13.13;;
787;SDS011;16074;42.708;23.312;2023-01-10T04:41:52;19.00;;;13.20;;
787;SDS011;16074;42.708;23.312;2023-01-10T04:44:20;18.88;;;12.98;;
787;SDS011;16074;42.708;23.312;2023-01-10T04:46:49;18.95;;;13.25;;
787;SDS011;16074;42.708;23.312;2023-01-10T04:49:17;16.25;;;11.95;;
787;SDS011;16074;42.708;23.312;2023-01-10T04:51:46;17.30;;;12.27;;
787;SDS011;16074;42.708;23.312;2023-01-10T04:54:14;18.52;;;13.50;;
787;SDS011;16074;42.708;23.312;2023-01-10T04:56:46;19.35;;;14.32;;
787;SDS011;16074;42.708;23.312;2023-01-10T04:59:16;18.83;;;13.75;;
787;SDS011;16074;42.708;23.312;2023-01-10T05:01:44;19.88;;;13.85;;
787;SDS011;16074;42.708;23.312;2023-01-10T05:04:13;23.98;;;16.73;;
787;SDS011;16074;42.708;23.312;2023-01-10T05:06:41;17.88;;;14.98;;
787;SDS011;16074;42.708;23.312;2023-01-10T05:09:09;19.27;;;15.40;;
787;SDS011;16074;42.708;23.312;2023-01-10T05:11:38;16.55;;;13.60;;
787;SDS011;16074;42.708;23.312;2023-01-10T05:14:07;25.92;;;15.32;;
787;SDS011;16074;42.708;23.312;2023-01-10T05:16:36;16.88;;;13.23;;
787;SDS011;16074;42.708;23.312;2023-01-10T05:19:05;20.70;;;13.85;;
787;SDS011;16074;42.708;23.312;2023-01-10T05:21:33;22.85;;;16.42;;
787;SDS011;16074;42.708;23.312;2023-01-10T05:24:02;20.65;;;16.10;;
787;SDS011;16074;42.708;23.312;2023-01-10T05:26:30;20.60;;;14.30;;
787;SDS011;16074;42.708;23.312;2023-01-10T05:28:59;19.30;;;16.52;;
787;SDS011;16074;42.708;23.312;2023-01-10T05:31:27;20.25;;;15.23;;
787;SDS011;16074;42.708;23.312;2023-01-10T05:33:56;24.15;;;14.85;;
787;SDS011;16074;42.708;23.312;2023-01-10T05:36:25;16.77;;;12.82;;
787;SDS011;16074;42.708;23.312;2023-01-10T05:38:53;18.67;;;15.00;;
787;SDS011;16074;42.708;23.312;2023-01-10T05:41:21;27.00;;;15.07;;
787;SDS011;16074;42.708;23.312;2023-01-10T05:43:50;19.77;;;14.43;;
787;SDS011;16074;42.708;23.312;2023-01-10T05:46:19;19.85;;;14.57;;
787;SDS011;16074;42.708;23.312;2023-01-10T05:48:47;20.80;;;14.00;;
787;SDS011;16074;42.708;23.312;2023-01-10T05:51:17;19.20;;;15.07;;
787;SDS011;16074;42.708;23.312;2023-01-10T05:53:45;14.88;;;13.27;;
787;SDS011;16074;42.708;23.312;2023-01-10T05:56:15;19.77;;;15.27;;
787;SDS011;16074;42.708;23.312;2023-01-10T05:58:44;24.20;;;15.77;;
787;SDS011;16074;42.708;23.312;2023-01-10T06:01:19;20.35;;;14.00;;
787;SDS011;16074;42.708;23.312;2023-01-10T06:03:47;20.70;;;15.30;;
787;SDS011;16074;42.708;23.312;2023-01-10T06:06:17;19.92;;;15.02;;
787;SDS011;16074;42.708;23.312;2023-01-10T06:08:45;22.02;;;15.40;;
787;SDS011;16074;42.708;23.312;2023-01-10T06:11:13;19.25;;;15.18;;
787;SDS011;16074;42.708;23.312;2023-01-10T06:13:42;22.25;;;16.20;;
787;SDS011;16074;42.708;23.312;2023-01-10T06:16:10;21.98;;;15.80;;
787;SDS011;16074;42.708;23.312;2023-01-10T06:18:38;26.77;;;16.50;;
787;SDS011;16074;42.708;23.312;2023-01-10T06:21:07;21.95;;;17.70;;
787;SDS011;16074;42.708;23.312;2023-01-10T06:23:36;25.23;;;16.85;;
787;SDS011;16074;42.708;23.312;2023-01-10T06:26:05;24.23;;;17.10;;
787;SDS011;16074;42.708;23.312;2023-01-10T06:28:33;21.95;;;17.73;;
787;SDS011;16074;42.708;23.312;2023-01-10T06:31:01;29.20;;;18.90;;
787;SDS011;16074;42.708;23.312;2023-01-10T06:33:30;23.60;;;19.58;;
787;SDS011;16074;42.708;23.312;2023-01-10T06:35:58;31.50;;;19.25;;
787;SDS011;16074;42.708;23.312;2023-01-10T06:38:26;20.60;;;15.90;;
787;SDS011;16074;42.708;23.312;2023-01-10T06:40:56;23.42;;;17.05;;
787;SDS011;16074;42.708;23.312;2023-01-10T06:43:24;26.02;;;19.15;;
787;SDS011;16074;42.708;23.312;2023-01-10T06:45:52;23.55;;;15.82;;
787;SDS011;16074;42.708;23.312;2023-01-10T06:48:21;27.75;;;18.35;;
787;SDS011;16074;42.708;23.312;2023-01-10T06:50:49;23.85;;;17.70;;
787;SDS011;16074;42.708;23.312;2023-01-10T06:53:17;26.23;;;19.92;;
787;SDS011;16074;42.708;23.312;2023-01-10T06:55:45;22.67;;;18.40;;
787;SDS011;16074;42.708;23.312;2023-01-10T06:58:15;26.60;;;19.20;;
787;SDS011;16074;42.708;23.312;2023-01-10T07:00:44;25.85;;;17.88;;
787;SDS011;16074;42.708;23.312;2023-01-10T07:03:12;26.52;;;18.70;;
787;SDS011;16074;42.708;23.312;2023-01-10T07:05:40;22.23;;;18.15;;
787;SDS011;16074;42.708;23.312;2023-01-10T07:08:09;28.00;;;20.70;;
787;SDS011;16074;42.708;23.312;2023-01-10T07:10:38;30.00;;;20.70;;
787;SDS011;16074;42.708;23.312;2023-01-10T07:13:07;27.05;;;21.42;;
787;SDS011;16074;42.708;23.312;2023-01-10T07:15:37;31.67;;;22.92;;
787;SDS011;16074;42.708;23.312;2023-01-10T07:18:06;29.58;;;23.42;;
787;SDS011;16074;42.708;23.312;2023-01-10T07:20:37;38.85;;;22.52;;
787;SDS011;16074;42.708;23.312;2023-01-10T07:23:05;30.50;;;24.92;;
787;SDS011;16074;42.708;23.312;2023-01-10T07:25:34;32.15;;;24.05;;
787;SDS011;16074;42.708;23.312;2023-01-10T07:28:03;36.58;;;23.65;;
787;SDS011;16074;42.708;23.312;2023-01-10T07:30:31;32.33;;;23.52;;
787;SDS011;16074;42.708;23.312;2023-01-10T07:33:01;35.45;;;23.27;;
787;SDS011;16074;42.708;23.312;2023-01-10T07:35:31;28.25;;;22.75;;
787;SDS011;16074;42.708;23.312;2023-01-10T07:38:00;31.85;;;21.67;;
787;SDS011;16074;42.708;23.312;2023-01-10T07:40:28;32.70;;;21.70;;
787;SDS011;16074;42.708;23.312;2023-01-10T07:42:57;28.92;;;20.67;;
787;SDS011;16074;42.708;23.312;2023-01-10T07:45:26;33.40;;;24.23;;
787;SDS011;16074;42.708;23.312;2023-01-10T07:47:56;37.40;;;25.95;;
787;SDS011;16074;42.708;23.312;2023-01-10T07:50:27;30.25;;;21.27;;
787;SDS011;16074;42.708;23.312;2023-01-10T07:52:57;30.80;;;20.10;;
787;SDS011;16074;42.708;23.312;2023-01-10T07:55:27;30.30;;;19.85;;
787;SDS011;16074;42.708;23.312;2023-01-10T07:57:55;30.77;;;22.13;;
787;SDS011;16074;42.708;23.312;2023-01-10T08:00:23;28.15;;;21.00;;
787;SDS011;16074;42.708;23.312;2023-01-10T08:02:52;32.38;;;21.27;;
787;SDS011;16074;42.708;23.312;2023-01-10T08:05:21;28.73;;;22.40;;
787;SDS011;16074;42.708;23.312;2023-01-10T08:07:51;36.90;;;24.80;;
787;SDS011;16074;42.708;23.312;2023-01-10T08:10:21;40.17;;;27.48;;
787;SDS011;16074;42.708;23.312;2023-01-10T08:12:51;47.45;;;33.17;;
787;SDS011;16074;42.708;23.312;2023-01-10T08:15:19;45.65;;;33.97;;
787;SDS011;16074;42.708;23.312;2023-01-10T08:17:48;50.22;;;31.08;;
787;SDS011;16074;42.708;23.312;2023-01-10T08:20:16;42.72;;;25.60;;
787;SDS011;16074;42.708;23.312;2023-01-10T08:22:45;39.95;;;27.48;;
787;SDS011;16074;42.708;23.312;2023-01-10T08:25:14;32.92;;;23.55;;
787;SDS011;16074;42.708;23.312;2023-01-10T08:27:43;34.20;;;23.63;;
787;SDS011;16074;42.708;23.312;2023-01-10T08:30:11;34.53;;;23.77;;
787;SDS011;16074;42.708;23.312;2023-01-10T08:32:40;37.70;;;25.83;;
787;SDS011;16074;42.708;23.312;2023-01-10T08:35:09;30.95;;;22.60;;
787;SDS011;16074;42.708;23.312;2023-01-10T08:37:37;35.42;;;26.75;;
787;SDS011;16074;42.708;23.312;2023-01-10T08:40:06;42.83;;;26.63;;
787;SDS011;16074;42.708;23.312;2023-01-10T08:42:36;32.58;;;23.85;;
787;SDS011;16074;42.708;23.312;2023-01-10T08:45:05;31.20;;;22.73;;
787;SDS011;16074;42.708;23.312;2023-01-10T08:47:34;35.05;;;22.98;;
787;SDS011;16074;42.708;23.312;2023-01-10T08:50:02;37.92;;;24.80;;
787;SDS011;16074;42.708;23.312;2023-01-10T08:52:33;38.55;;;28.20;;
787;SDS011;16074;42.708;23.312;2023-01-10T08:55:01;37.33;;;25.23;;
787;SDS011;16074;42.708;23.312;2023-01-10T08:57:30;40.75;;;28.08;;
787;SDS011;16074;42.708;23.312;2023-01-10T08:59:59;43.08;;;26.98;;
787;SDS011;16074;42.708;23.312;2023-01-10T09:02:28;35.92;;;25.55;;
787;SDS011;16074;42.708;23.312;2023-01-10T09:04:56;37.00;;;25.95;;
787;SDS011;16074;42.708;23.312;2023-01-10T09:07:24;42.83;;;27.33;;
787;SDS011;16074;42.708;23.312;2023-01-10T09:09:53;46.75;;;25.70;;
787;SDS011;16074;42.708;23.312;2023-01-10T09:12:21;37.13;;;27.02;;
787;SDS011;16074;42.708;23.312;2023-01-10T09:15:09;40.60;;;26.55;;
787;SDS011;16074;42.708;23.312;2023-01-10T09:17:37;42.08;;;27.23;;
787;SDS011;16074;42.708;23.312;2023-01-10T09:20:06;45.75;;;29.38;;
787;SDS011;16074;42.708;23.312;2023-01-10T09:22:36;48.55;;;27.85;;
787;SDS011;16074;42.708;23.312;2023-01-10T09:25:05;46.25;;;29.98;;
787;SDS011;16074;42.708;23.312;2023-01-10T09:27:33;44.05;;;30.55;;
787;SDS011;16074;42.708;23.312;2023-01-10T09:30:02;44.80;;;28.98;;
787;SDS011;16074;42.708;23.312;2023-01-10T09:32:32;46.83;;;30.42;;
787;SDS011;16074;42.708;23.312;2023-01-10T09:35:00;40.50;;;27.38;;
787;SDS011;16074;42.708;23.312;2023-01-10T09:37:28;49.38;;;31.33;;
787;SDS011;16074;42.708;23.312;2023-01-10T09:39:59;45.38;;;28.92;;
787;SDS011;16074;42.708;23.312;2023-01-10T09:42:30;42.50;;;28.67;;
787;SDS011;16074;42.708;23.312;2023-01-10T09:45:12;48.90;;;29.60;;
787;SDS011;16074;42.708;23.312;2023-01-10T09:47:47;42.38;;;29.23;;
787;SDS011;16074;42.708;23.312;2023-01-10T09:50:23;49.15;;;32.90;;
787;SDS011;16074;42.708;23.312;2023-01-10T09:53:01;57.13;;;35.33;;
787;SDS011;16074;42.708;23.312;2023-01-10T09:55:32;49.33;;;34.63;;
787;SDS011;16074;42.708;23.312;2023-01-10T09:58:04;56.33;;;35.83;;
787;SDS011;16074;42.708;23.312;2023-01-10T10:00:38;53.55;;;34.70;;
787;SDS011;16074;42.708;23.312;2023-01-10T10:03:18;49.28;;;34.70;;
787;SDS011;16074;42.708;23.312;2023-01-10T10:05:52;62.00;;;35.75;;
787;SDS011;16074;42.708;23.312;2023-01-10T10:08:36;45.20;;;35.85;;
787;SDS011;16074;42.708;23.312;2023-01-10T10:11:08;55.67;;;36.95;;
787;SDS011;16074;42.708;23.312;2023-01-10T10:13:55;58.70;;;35.53;;
787;SDS011;16074;42.708;23.312;2023-01-10T10:16:33;49.75;;;32.22;;
787;SDS011;16074;42.708;23.312;2023-01-10T10:19:10;54.00;;;32.40;;
787;SDS011;16074;42.708;23.312;2023-01-10T10:21:47;49.28;;;30.67;;
787;SDS011;16074;42.708;23.312;2023-01-10T10:24:29;47.30;;;29.80;;
787;SDS011;16074;42.708;23.312;2023-01-10T10:27:08;49.58;;;32.15;;
787;SDS011;16074;42.708;23.312;2023-01-10T10:32:45;50.70;;;32.83;;
787;SDS011;16074;42.708;23.312;2023-01-10T10:35:25;59.05;;;35.95;;
787;SDS011;16074;42.708;23.312;2023-01-10T10:37:57;56.35;;;35.40;;
787;SDS011;16074;42.708;23.312;2023-01-10T10:40:33;56.83;;;34.10;;
787;SDS011;16074;42.708;23.312;2023-01-10T10:43:10;50.97;;;31.98;;
787;SDS011;16074;42.708;23.312;2023-01-10T10:45:47;50.22;;;32.13;;
787;SDS011;16074;42.708;23.312;2023-01-10T10:48:23;49.17;;;33.60;;
787;SDS011;16074;42.708;23.312;2023-01-10T10:51:03;52.85;;;35.83;;
787;SDS011;16074;42.708;23.312;2023-01-10T10:53:34;58.75;;;34.47;;
787;SDS011;16074;42.708;23.312;2023-01-10T10:56:03;53.63;;;31.70;;
787;SDS011;16074;42.708;23.312;2023-01-10T10:58:37;50.90;;;29.10;;
787;SDS011;16074;42.708;23.312;2023-01-10T11:01:10;50.15;;;30.27;;
787;SDS011;16074;42.708;23.312;2023-01-10T11:03:41;45.40;;;28.08;;
787;SDS011;16074;42.708;23.312;2023-01-10T11:06:15;52.17;;;32.60;;
787;SDS011;16074;42.708;23.312;2023-01-10T11:08:45;53.60;;;33.92;;
787;SDS011;16074;42.708;23.312;2023-01-10T11:11:18;59.33;;;33.47;;
787;SDS011;16074;42.708;23.312;2023-01-10T11:13:52;53.80;;;36.42;;
787;SDS011;16074;42.708;23.312;2023-01-10T11:16:23;50.67;;;33.60;;
787;SDS011;16074;42.708;23.312;2023-01-10T11:19:16;52.78;;;31.30;;
787;SDS011;16074;42.708;23.312;2023-01-10T11:21:53;44.58;;;31.80;;
787;SDS011;16074;42.708;23.312;2023-01-10T11:24:27;50.75;;;33.55;;
787;SDS011;16074;42.708;23.312;2023-01-10T11:26:57;48.95;;;32.58;;
787;SDS011;16074;42.708;23.312;2023-01-10T11:29:31;61.97;;;41.53;;
787;SDS011;16074;42.708;23.312;2023-01-10T11:32:08;54.80;;;36.28;;
787;SDS011;16074;42.708;23.312;2023-01-10T11:34:40;57.15;;;35.40;;
787;SDS011;16074;42.708;23.312;2023-01-10T11:37:19;58.90;;;39.10;;
787;SDS011;16074;42.708;23.312;2023-01-10T11:40:01;56.15;;;36.63;;
787;SDS011;16074;42.708;23.312;2023-01-10T11:42:41;47.92;;;33.92;;
787;SDS011;16074;42.708;23.312;2023-01-10T11:45:18;53.28;;;36.03;;
787;SDS011;16074;42.708;23.312;2023-01-10T11:47:50;59.42;;;34.40;;
787;SDS011;16074;42.708;23.312;2023-01-10T11:50:21;53.40;;;35.42;;
787;SDS011;16074;42.708;23.312;2023-01-10T11:52:53;59.80;;;34.63;;
787;SDS011;16074;42.708;23.312;2023-01-10T11:55:23;56.63;;;38.97;;
787;SDS011;16074;42.708;23.312;2023-01-10T11:57:54;57.97;;;38.10;;
787;SDS011;16074;42.708;23.312;2023-01-10T12:00:30;54.65;;;39.15;;
787;SDS011;16074;42.708;23.312;2023-01-10T12:03:01;62.85;;;39.92;;
787;SDS011;16074;42.708;23.312;2023-01-10T12:05:41;51.38;;;34.63;;
787;SDS011;16074;42.708;23.312;2023-01-10T12:08:23;51.03;;;36.45;;
787;SDS011;16074;42.708;23.312;2023-01-10T12:11:03;55.58;;;36.60;;
787;SDS011;16074;42.708;23.312;2023-01-10T12:13:42;47.53;;;33.13;;
787;SDS011;16074;42.708;23.312;2023-01-10T12:16:13;46.80;;;32.53;;
787;SDS011;16074;42.708;23.312;2023-01-10T12:18:43;47.42;;;30.65;;
787;SDS011;16074;42.708;23.312;2023-01-10T12:21:12;47.03;;;32.13;;
787;SDS011;16074;42.708;23.312;2023-01-10T12:23:45;45.80;;;33.45;;
787;SDS011;16074;42.708;23.312;2023-01-10T12:26:16;47.15;;;31.20;;
787;SDS011;16074;42.708;23.312;2023-01-10T12:28:48;48.65;;;33.20;;
787;SDS011;16074;42.708;23.312;2023-01-10T12:31:19;46.10;;;32.45;;
787;SDS011;16074;42.708;23.312;2023-01-10T12:33:53;47.88;;;35.05;;
787;SDS011;16074;42.708;23.312;2023-01-10T12:36:30;46.25;;;33.30;;
787;SDS011;16074;42.708;23.312;2023-01-10T12:39:07;50.47;;;33.13;;
787;SDS011;16074;42.708;23.312;2023-01-10T12:41:44;47.25;;;33.88;;
787;SDS011;16074;42.708;23.312;2023-01-10T12:44:37;43.90;;;31.00;;
787;SDS011;16074;42.708;23.312;2023-01-10T12:47:17;53.05;;;34.08;;
787;SDS011;16074;42.708;23.312;2023-01-10T12:49:55;43.10;;;28.77;;
787;SDS011;16074;42.708;23.312;2023-01-10T12:52:31;41.90;;;28.00;;
787;SDS011;16074;42.708;23.312;2023-01-10T12:55:12;44.88;;;29.90;;
787;SDS011;16074;42.708;23.312;2023-01-10T12:57:42;44.88;;;29.65;;
787;SDS011;16074;42.708;23.312;2023-01-10T13:00:19;42.40;;;30.33;;
787;SDS011;16074;42.708;23.312;2023-01-10T13:02:52;47.25;;;31.52;;
787;SDS011;16074;42.708;23.312;2023-01-10T13:05:24;50.50;;;32.72;;
787;SDS011;16074;42.708;23.312;2023-01-10T13:07:58;45.17;;;32.40;;
787;SDS011;16074;42.708;23.312;2023-01-10T13:10:31;40.03;;;29.63;;
787;SDS011;16074;42.708;23.312;2023-01-10T13:13:03;47.13;;;30.27;;
787;SDS011;16074;42.708;23.312;2023-01-10T13:15:40;42.17;;;31.63;;
787;SDS011;16074;42.708;23.312;2023-01-10T13:18:15;42.88;;;29.92;;
787;SDS011;16074;42.708;23.312;2023-01-10T13:20:46;41.33;;;28.55;;
787;SDS011;16074;42.708;23.312;2023-01-10T13:26:04;37.97;;;26.98;;
787;SDS011;16074;42.708;23.312;2023-01-10T13:28:36;39.85;;;27.38;;
787;SDS011;16074;42.708;23.312;2023-01-10T13:31:06;44.20;;;29.90;;
787;SDS011;16074;42.708;23.312;2023-01-10T13:33:50;47.70;;;29.92;;
787;SDS011;16074;42.708;23.312;2023-01-10T13:36:22;32.63;;;23.35;;
787;SDS011;16074;42.708;23.312;2023-01-10T13:38:53;22.95;;;17.80;;
787;SDS011;16074;42.708;23.312;2023-01-10T13:41:25;25.92;;;20.17;;
787;SDS011;16074;42.708;23.312;2023-01-10T13:45:13;24.92;;;15.48;;
787;SDS011;16074;42.708;23.312;2023-01-10T13:48:00;21.70;;;15.55;;
787;SDS011;16074;42.708;23.312;2023-01-10T13:51:04;23.77;;;18.10;;
787;SDS011;16074;42.708;23.312;2023-01-10T13:53:40;20.33;;;15.40;;
787;SDS011;16074;42.708;23.312;2023-01-10T13:59:13;19.40;;;14.48;;
787;SDS011;16074;42.708;23.312;2023-01-10T14:02:20;18.25;;;14.10;;
787;SDS011;16074;42.708;23.312;2023-01-10T14:04:57;14.85;;;12.30;;
787;SDS011;16074;42.708;23.312;2023-01-10T14:07:29;16.30;;;12.80;;
787;SDS011;16074;42.708;23.312;2023-01-10T14:10:01;13.73;;;11.20;;
787;SDS011;16074;42.708;23.312;2023-01-10T14:12:33;12.88;;;11.35;;
787;SDS011;16074;42.708;23.312;2023-01-10T14:15:19;13.57;;;11.68;;
787;SDS011;16074;42.708;23.312;2023-01-10T14:17:54;17.88;;;14.30;;
787;SDS011;16074;42.708;23.312;2023-01-10T14:20:24;23.67;;;16.02;;
787;SDS011;16074;42.708;23.312;2023-01-10T14:23:02;15.80;;;14.10;;
787;SDS011;16074;42.708;23.312;2023-01-10T14:25:33;12.30;;;10.77;;
787;SDS011;16074;42.708;23.312;2023-01-10T14:28:03;14.00;;;11.15;;
787;SDS011;16074;42.708;23.312;2023-01-10T14:30:42;13.63;;;11.35;;
787;SDS011;16074;42.708;23.312;2023-01-10T14:33:12;10.75;;;9.40;;
787;SDS011;16074;42.708;23.312;2023-01-10T14:35:44;12.18;;;8.40;;
787;SDS011;16074;42.708;23.312;2023-01-10T14:38:17;9.93;;;8.82;;
787;SDS011;16074;42.708;23.312;2023-01-10T14:40:50;7.20;;;6.38;;
787;SDS011;16074;42.708;23.312;2023-01-10T14:43:21;8.05;;;6.85;;
787;SDS011;16074;42.708;23.312;2023-01-10T14:45:54;7.25;;;6.38;;
787;SDS011;16074;42.708;23.312;2023-01-10T14:48:28;8.75;;;7.57;;
787;SDS011;16074;42.708;23.312;2023-01-10T14:53:55;10.90;;;8.48;;
787;SDS011;16074;42.708;23.312;2023-01-10T14:56:27;9.10;;;7.75;;
787;SDS011;16074;42.708;23.312;2023-01-10T14:58:56;10.38;;;6.38;;
787;SDS011;16074;42.708;23.312;2023-01-10T15:01:27;8.02;;;6.82;;
787;SDS011;16074;42.708;23.312;2023-01-10T15:03:57;11.00;;;8.55;;
787;SDS011;16074;42.708;23.312;2023-01-10T15:06:28;13.18;;;11.75;;
787;SDS011;16074;42.708;23.312;2023-01-10T15:08:57;18.88;;;17.08;;
787;SDS011;16074;42.708;23.312;2023-01-10T15:11:29;17.67;;;15.05;;
787;SDS011;16074;42.708;23.312;2023-01-10T15:14:00;12.68;;;8.35;;
787;SDS011;16074;42.708;23.312;2023-01-10T15:16:34;8.65;;;7.38;;
787;SDS011;16074;42.708;23.312;2023-01-10T15:19:04;10.98;;;9.02;;
787;SDS011;16074;42.708;23.312;2023-01-10T15:21:32;15.18;;;13.65;;
787;SDS011;16074;42.708;23.312;2023-01-10T15:24:29;8.68;;;7.63;;
787;SDS011;16074;42.708;23.312;2023-01-10T15:26:59;7.90;;;7.00;;
787;SDS011;16074;42.708;23.312;2023-01-10T15:29:30;6.68;;;5.97;;
787;SDS011;16074;42.708;23.312;2023-01-10T15:32:05;5.93;;;5.43;;